sensor_id;sensor_type;location;lat;lon;timestamp;temperature;humidity
37242;DHT22;23135;51.078;12.108;2024-03-29T00:00:40;6.80;99.90
37242;DHT22;23135;51.078;12.108;2024-03-29T00:03:07;6.70;99.90
37242;DHT22;23135;51.078;12.108;2024-03-29T00:05:33;6.60;99.90
37242;DHT22;23135;51.078;12.108;2024-03-29T00:07:59;6.50;99.90
37242;DHT22;23135;51.078;12.108;2024-03-29T00:10:25;6.40;99.90
37242;DHT22;23135;51.078;12.108;2024-03-29T00:12:50;6.40;99.90
37242;DHT22;23135;51.078;12.108;2024-03-29T00:15:16;6.30;99.90
37242;DHT22;23135;51.078;12.108;2024-03-29T00:17:41;6.30;99.90
37242;DHT22;23135;51.078;12.108;2024-03-29T00:20:07;6.30;99.90
37242;DHT22;23135;51.078;12.108;2024-03-29T00:22:33;6.20;99.90
37242;DHT22;23135;51.078;12.108;2024-03-29T00:24:59;6.20;99.90
37242;DHT22;23135;51.078;12.108;2024-03-29T00:27:24;6.20;99.90
37242;DHT22;23135;51.078;12.108;2024-03-29T00:29:52;6.20;99.90
37242;DHT22;23135;51.078;12.108;2024-03-29T00:32:20;6.30;99.90
37242;DHT22;23135;51.078;12.108;2024-03-29T00:34:49;6.30;99.90
37242;DHT22;23135;51.078;12.108;2024-03-29T00:37:14;6.40;99.90
37242;DHT22;23135;51.078;12.108;2024-03-29T00:39:40;6.30;99.90
37242;DHT22;23135;51.078;12.108;2024-03-29T00:42:06;6.30;99.90
37242;DHT22;23135;51.078;12.108;2024-03-29T00:44:34;6.30;99.90
37242;DHT22;23135;51.078;12.108;2024-03-29T00:47:01;6.40;99.90
37242;DHT22;23135;51.078;12.108;2024-03-29T00:49:26;6.50;99.90
37242;DHT22;23135;51.078;12.108;2024-03-29T00:51:52;6.60;99.90
37242;DHT22;23135;51.078;12.108;2024-03-29T00:54:18;6.70;99.90
37242;DHT22;23135;51.078;12.108;2024-03-29T00:56:44;6.90;99.90
37242;DHT22;23135;51.078;12.108;2024-03-29T00:59:10;6.80;99.90
37242;DHT22;23135;51.078;12.108;2024-03-29T01:01:35;6.90;99.90
37242;DHT22;23135;51.078;12.108;2024-03-29T01:04:01;6.80;99.90
37242;DHT22;23135;51.078;12.108;2024-03-29T01:06:26;6.90;99.90
37242;DHT22;23135;51.078;12.108;2024-03-29T01:08:52;6.80;99.90
37242;DHT22;23135;51.078;12.108;2024-03-29T01:11:17;6.80;99.90
37242;DHT22;23135;51.078;12.108;2024-03-29T01:13:43;6.70;99.90
37242;DHT22;23135;51.078;12.108;2024-03-29T01:16:08;6.70;99.90
37242;DHT22;23135;51.078;12.108;2024-03-29T01:18:34;6.70;99.90
37242;DHT22;23135;51.078;12.108;2024-03-29T01:20:59;6.70;99.90
37242;DHT22;23135;51.078;12.108;2024-03-29T01:23:25;6.60;99.90
37242;DHT22;23135;51.078;12.108;2024-03-29T01:25:50;6.50;99.90
37242;DHT22;23135;51.078;12.108;2024-03-29T01:28:16;6.40;99.90
37242;DHT22;23135;51.078;12.108;2024-03-29T01:30:41;6.30;99.90
37242;DHT22;23135;51.078;12.108;2024-03-29T01:33:07;6.30;99.90
37242;DHT22;23135;51.078;12.108;2024-03-29T01:35:33;6.30;99.90
37242;DHT22;23135;51.078;12.108;2024-03-29T01:37:58;6.30;99.90
37242;DHT22;23135;51.078;12.108;2024-03-29T01:40:24;6.30;99.90
37242;DHT22;23135;51.078;12.108;2024-03-29T01:42:53;6.30;99.90
37242;DHT22;23135;51.078;12.108;2024-03-29T01:45:19;6.50;99.90
37242;DHT22;23135;51.078;12.108;2024-03-29T01:47:45;6.50;99.90
37242;DHT22;23135;51.078;12.108;2024-03-29T01:50:11;6.50;99.90
37242;DHT22;23135;51.078;12.108;2024-03-29T01:52:37;6.60;99.90
37242;DHT22;23135;51.078;12.108;2024-03-29T01:55:03;6.60;99.90
37242;DHT22;23135;51.078;12.108;2024-03-29T01:57:29;6.50;99.90
37242;DHT22;23135;51.078;12.108;2024-03-29T01:59:55;6.50;99.90
37242;DHT22;23135;51.078;12.108;2024-03-29T02:02:22;6.40;99.90
37242;DHT22;23135;51.078;12.108;2024-03-29T02:04:49;6.40;99.90
37242;DHT22;23135;51.078;12.108;2024-03-29T02:07:15;6.40;99.90
37242;DHT22;23135;51.078;12.108;2024-03-29T02:09:40;6.30;99.90
37242;DHT22;23135;51.078;12.108;2024-03-29T02:12:06;6.40;99.90
37242;DHT22;23135;51.078;12.108;2024-03-29T02:14:32;6.30;99.90
37242;DHT22;23135;51.078;12.108;2024-03-29T02:16:57;6.30;99.90
37242;DHT22;23135;51.078;12.108;2024-03-29T02:19:23;6.30;99.90
37242;DHT22;23135;51.078;12.108;2024-03-29T02:21:49;6.30;99.90
37242;DHT22;23135;51.078;12.108;2024-03-29T02:24:17;6.30;99.90
37242;DHT22;23135;51.078;12.108;2024-03-29T02:26:43;6.30;99.90
37242;DHT22;23135;51.078;12.108;2024-03-29T02:29:10;6.30;99.90
37242;DHT22;23135;51.078;12.108;2024-03-29T02:31:36;6.30;99.90
37242;DHT22;23135;51.078;12.108;2024-03-29T02:34:02;6.40;99.90
37242;DHT22;23135;51.078;12.108;2024-03-29T02:36:28;6.40;99.90
37242;DHT22;23135;51.078;12.108;2024-03-29T02:38:53;6.50;99.90
37242;DHT22;23135;51.078;12.108;2024-03-29T02:41:19;6.50;99.90
37242;DHT22;23135;51.078;12.108;2024-03-29T02:43:44;6.60;99.90
37242;DHT22;23135;51.078;12.108;2024-03-29T02:46:10;6.60;99.90
37242;DHT22;23135;51.078;12.108;2024-03-29T02:48:36;6.70;99.90
37242;DHT22;23135;51.078;12.108;2024-03-29T02:51:01;6.60;99.90
37242;DHT22;23135;51.078;12.108;2024-03-29T02:53:27;6.70;99.90
37242;DHT22;23135;51.078;12.108;2024-03-29T02:55:52;6.70;99.90
37242;DHT22;23135;51.078;12.108;2024-03-29T02:58:18;6.70;99.90
37242;DHT22;23135;51.078;12.108;2024-03-29T03:00:43;6.80;99.90
37242;DHT22;23135;51.078;12.108;2024-03-29T03:03:09;6.80;99.90
37242;DHT22;23135;51.078;12.108;2024-03-29T03:05:34;6.70;99.90
37242;DHT22;23135;51.078;12.108;2024-03-29T03:08:00;6.70;99.90
37242;DHT22;23135;51.078;12.108;2024-03-29T03:10:47;6.70;99.90
37242;DHT22;23135;51.078;12.108;2024-03-29T03:13:27;6.70;99.90
37242;DHT22;23135;51.078;12.108;2024-03-29T03:15:54;6.70;99.90
37242;DHT22;23135;51.078;12.108;2024-03-29T03:18:20;6.60;99.90
37242;DHT22;23135;51.078;12.108;2024-03-29T03:20:55;6.60;99.90
37242;DHT22;23135;51.078;12.108;2024-03-29T03:23:23;6.50;99.90
37242;DHT22;23135;51.078;12.108;2024-03-29T03:25:59;6.50;99.90
37242;DHT22;23135;51.078;12.108;2024-03-29T03:28:25;6.50;99.90
37242;DHT22;23135;51.078;12.108;2024-03-29T03:30:51;6.40;99.90
37242;DHT22;23135;51.078;12.108;2024-03-29T03:33:17;6.40;99.90
37242;DHT22;23135;51.078;12.108;2024-03-29T03:35:43;6.30;99.90
37242;DHT22;23135;51.078;12.108;2024-03-29T03:38:09;6.30;99.90
37242;DHT22;23135;51.078;12.108;2024-03-29T03:40:36;6.40;99.90
37242;DHT22;23135;51.078;12.108;2024-03-29T03:43:03;6.40;99.90
37242;DHT22;23135;51.078;12.108;2024-03-29T03:45:28;6.40;99.90
37242;DHT22;23135;51.078;12.108;2024-03-29T03:47:54;6.50;99.90
37242;DHT22;23135;51.078;12.108;2024-03-29T03:50:20;6.50;99.90
37242;DHT22;23135;51.078;12.108;2024-03-29T03:52:46;6.50;99.90
37242;DHT22;23135;51.078;12.108;2024-03-29T03:55:11;6.50;99.90
37242;DHT22;23135;51.078;12.108;2024-03-29T03:57:37;6.50;99.90
37242;DHT22;23135;51.078;12.108;2024-03-29T04:00:04;6.60;99.90
37242;DHT22;23135;51.078;12.108;2024-03-29T04:02:29;6.70;99.90
37242;DHT22;23135;51.078;12.108;2024-03-29T04:04:55;6.70;99.90
37242;DHT22;23135;51.078;12.108;2024-03-29T04:07:20;6.70;99.90
37242;DHT22;23135;51.078;12.108;2024-03-29T04:09:46;6.80;99.90
37242;DHT22;23135;51.078;12.108;2024-03-29T04:12:15;6.80;99.90
37242;DHT22;23135;51.078;12.108;2024-03-29T04:14:41;6.90;99.90
37242;DHT22;23135;51.078;12.108;2024-03-29T04:17:06;6.90;99.90
37242;DHT22;23135;51.078;12.108;2024-03-29T04:19:32;6.90;99.90
37242;DHT22;23135;51.078;12.108;2024-03-29T04:21:57;6.90;99.90
37242;DHT22;23135;51.078;12.108;2024-03-29T04:24:23;6.90;99.90
37242;DHT22;23135;51.078;12.108;2024-03-29T04:26:48;7.00;99.90
37242;DHT22;23135;51.078;12.108;2024-03-29T04:29:14;7.00;99.90
37242;DHT22;23135;51.078;12.108;2024-03-29T04:31:40;7.00;99.90
37242;DHT22;23135;51.078;12.108;2024-03-29T04:34:05;7.00;99.90
37242;DHT22;23135;51.078;12.108;2024-03-29T04:36:31;7.00;99.90
37242;DHT22;23135;51.078;12.108;2024-03-29T04:38:57;6.90;99.90
37242;DHT22;23135;51.078;12.108;2024-03-29T04:41:22;7.00;99.90
37242;DHT22;23135;51.078;12.108;2024-03-29T04:43:48;7.10;99.90
37242;DHT22;23135;51.078;12.108;2024-03-29T04:46:14;7.10;99.90
37242;DHT22;23135;51.078;12.108;2024-03-29T04:48:42;7.10;99.90
37242;DHT22;23135;51.078;12.108;2024-03-29T04:51:11;7.20;99.90
37242;DHT22;23135;51.078;12.108;2024-03-29T04:53:37;7.20;99.90
37242;DHT22;23135;51.078;12.108;2024-03-29T04:56:04;7.30;99.90
37242;DHT22;23135;51.078;12.108;2024-03-29T04:58:29;7.20;99.90
37242;DHT22;23135;51.078;12.108;2024-03-29T05:00:55;7.30;99.90
37242;DHT22;23135;51.078;12.108;2024-03-29T05:03:21;7.40;99.90
37242;DHT22;23135;51.078;12.108;2024-03-29T05:05:49;7.40;99.90
37242;DHT22;23135;51.078;12.108;2024-03-29T05:08:15;7.40;99.90
37242;DHT22;23135;51.078;12.108;2024-03-29T05:10:40;7.40;99.90
37242;DHT22;23135;51.078;12.108;2024-03-29T05:13:06;7.30;99.90
37242;DHT22;23135;51.078;12.108;2024-03-29T05:15:32;7.40;99.90
37242;DHT22;23135;51.078;12.108;2024-03-29T05:17:58;7.30;99.90
37242;DHT22;23135;51.078;12.108;2024-03-29T05:20:24;7.30;99.90
37242;DHT22;23135;51.078;12.108;2024-03-29T05:22:49;7.30;99.90
37242;DHT22;23135;51.078;12.108;2024-03-29T05:25:15;7.40;99.90
37242;DHT22;23135;51.078;12.108;2024-03-29T05:27:40;7.40;99.90
37242;DHT22;23135;51.078;12.108;2024-03-29T05:30:06;7.40;99.90
37242;DHT22;23135;51.078;12.108;2024-03-29T05:32:32;7.40;99.90
37242;DHT22;23135;51.078;12.108;2024-03-29T05:34:58;7.40;99.90
37242;DHT22;23135;51.078;12.108;2024-03-29T05:37:23;7.40;99.90
37242;DHT22;23135;51.078;12.108;2024-03-29T05:39:52;7.40;99.90
37242;DHT22;23135;51.078;12.108;2024-03-29T05:42:31;7.40;99.90
37242;DHT22;23135;51.078;12.108;2024-03-29T05:44:57;7.40;99.90
37242;DHT22;23135;51.078;12.108;2024-03-29T05:47:23;7.50;99.90
37242;DHT22;23135;51.078;12.108;2024-03-29T05:49:49;7.50;99.90
37242;DHT22;23135;51.078;12.108;2024-03-29T05:52:15;7.50;99.90
37242;DHT22;23135;51.078;12.108;2024-03-29T05:54:44;7.60;99.90
37242;DHT22;23135;51.078;12.108;2024-03-29T05:57:10;7.60;99.90
37242;DHT22;23135;51.078;12.108;2024-03-29T05:59:36;7.60;99.90
37242;DHT22;23135;51.078;12.108;2024-03-29T06:02:02;7.70;99.90
37242;DHT22;23135;51.078;12.108;2024-03-29T06:04:28;7.70;99.90
37242;DHT22;23135;51.078;12.108;2024-03-29T06:07:03;7.70;99.90
37242;DHT22;23135;51.078;12.108;2024-03-29T06:09:29;7.70;99.90
37242;DHT22;23135;51.078;12.108;2024-03-29T06:11:56;7.70;99.90
37242;DHT22;23135;51.078;12.108;2024-03-29T06:14:23;7.80;99.90
37242;DHT22;23135;51.078;12.108;2024-03-29T06:17:07;7.90;99.90
37242;DHT22;23135;51.078;12.108;2024-03-29T06:19:51;7.90;99.90
37242;DHT22;23135;51.078;12.108;2024-03-29T06:22:20;8.00;99.90
37242;DHT22;23135;51.078;12.108;2024-03-29T06:24:46;8.10;99.90
37242;DHT22;23135;51.078;12.108;2024-03-29T06:27:12;8.10;99.90
37242;DHT22;23135;51.078;12.108;2024-03-29T06:29:41;8.20;99.90
37242;DHT22;23135;51.078;12.108;2024-03-29T06:32:07;8.20;99.90
37242;DHT22;23135;51.078;12.108;2024-03-29T06:34:32;8.30;99.90
37242;DHT22;23135;51.078;12.108;2024-03-29T06:36:58;8.30;99.90
37242;DHT22;23135;51.078;12.108;2024-03-29T06:39:23;8.30;99.90
37242;DHT22;23135;51.078;12.108;2024-03-29T06:41:51;8.30;99.90
37242;DHT22;23135;51.078;12.108;2024-03-29T06:44:16;8.40;99.90
37242;DHT22;23135;51.078;12.108;2024-03-29T06:46:42;8.40;99.90
37242;DHT22;23135;51.078;12.108;2024-03-29T06:49:07;8.50;99.90
37242;DHT22;23135;51.078;12.108;2024-03-29T06:51:33;8.50;99.90
37242;DHT22;23135;51.078;12.108;2024-03-29T06:53:58;8.50;99.90
37242;DHT22;23135;51.078;12.108;2024-03-29T06:56:24;8.60;99.90
37242;DHT22;23135;51.078;12.108;2024-03-29T06:58:50;8.60;99.90
37242;DHT22;23135;51.078;12.108;2024-03-29T07:01:15;8.60;99.90
37242;DHT22;23135;51.078;12.108;2024-03-29T07:03:41;8.60;99.90
37242;DHT22;23135;51.078;12.108;2024-03-29T07:06:07;8.70;99.90
37242;DHT22;23135;51.078;12.108;2024-03-29T07:08:32;8.70;99.90
37242;DHT22;23135;51.078;12.108;2024-03-29T07:11:02;8.70;99.90
37242;DHT22;23135;51.078;12.108;2024-03-29T07:13:29;8.80;99.90
37242;DHT22;23135;51.078;12.108;2024-03-29T07:15:57;8.80;99.90
37242;DHT22;23135;51.078;12.108;2024-03-29T07:18:22;8.80;99.90
37242;DHT22;23135;51.078;12.108;2024-03-29T07:20:49;8.80;99.90
37242;DHT22;23135;51.078;12.108;2024-03-29T07:23:14;8.80;99.90
37242;DHT22;23135;51.078;12.108;2024-03-29T07:25:40;8.90;99.90
37242;DHT22;23135;51.078;12.108;2024-03-29T07:28:06;8.90;99.90
37242;DHT22;23135;51.078;12.108;2024-03-29T07:30:32;8.90;99.90
37242;DHT22;23135;51.078;12.108;2024-03-29T07:32:57;9.00;99.90
37242;DHT22;23135;51.078;12.108;2024-03-29T07:35:23;9.00;99.90
37242;DHT22;23135;51.078;12.108;2024-03-29T07:37:49;9.00;99.90
37242;DHT22;23135;51.078;12.108;2024-03-29T07:40:16;9.10;99.90
37242;DHT22;23135;51.078;12.108;2024-03-29T07:42:42;9.20;99.90
37242;DHT22;23135;51.078;12.108;2024-03-29T07:45:08;9.20;99.90
37242;DHT22;23135;51.078;12.108;2024-03-29T07:47:33;9.20;99.90
37242;DHT22;23135;51.078;12.108;2024-03-29T07:49:59;9.30;99.90
37242;DHT22;23135;51.078;12.108;2024-03-29T07:52:25;9.40;99.90
37242;DHT22;23135;51.078;12.108;2024-03-29T07:54:50;9.40;99.90
37242;DHT22;23135;51.078;12.108;2024-03-29T07:57:16;9.50;99.90
37242;DHT22;23135;51.078;12.108;2024-03-29T07:59:42;9.50;99.90
37242;DHT22;23135;51.078;12.108;2024-03-29T08:02:08;9.60;99.90
37242;DHT22;23135;51.078;12.108;2024-03-29T08:04:34;9.60;99.90
37242;DHT22;23135;51.078;12.108;2024-03-29T08:06:59;9.60;99.90
37242;DHT22;23135;51.078;12.108;2024-03-29T08:09:25;9.60;99.90
37242;DHT22;23135;51.078;12.108;2024-03-29T08:11:51;9.70;99.90
37242;DHT22;23135;51.078;12.108;2024-03-29T08:14:16;9.70;99.90
37242;DHT22;23135;51.078;12.108;2024-03-29T08:16:42;9.80;99.90
37242;DHT22;23135;51.078;12.108;2024-03-29T08:19:08;9.80;99.90
37242;DHT22;23135;51.078;12.108;2024-03-29T08:21:33;9.80;99.90
37242;DHT22;23135;51.078;12.108;2024-03-29T08:23:59;9.90;99.90
37242;DHT22;23135;51.078;12.108;2024-03-29T08:26:27;9.90;99.90
37242;DHT22;23135;51.078;12.108;2024-03-29T08:28:54;10.00;99.90
37242;DHT22;23135;51.078;12.108;2024-03-29T08:31:19;10.10;99.90
37242;DHT22;23135;51.078;12.108;2024-03-29T08:33:45;10.20;99.90
37242;DHT22;23135;51.078;12.108;2024-03-29T08:36:10;10.30;99.90
37242;DHT22;23135;51.078;12.108;2024-03-29T08:38:37;10.40;99.90
37242;DHT22;23135;51.078;12.108;2024-03-29T08:41:06;10.60;99.90
37242;DHT22;23135;51.078;12.108;2024-03-29T08:43:33;10.80;99.90
37242;DHT22;23135;51.078;12.108;2024-03-29T08:45:58;10.90;99.90
37242;DHT22;23135;51.078;12.108;2024-03-29T08:48:24;11.00;99.90
37242;DHT22;23135;51.078;12.108;2024-03-29T08:50:50;11.20;99.90
37242;DHT22;23135;51.078;12.108;2024-03-29T08:53:16;11.30;99.90
37242;DHT22;23135;51.078;12.108;2024-03-29T08:55:42;11.50;99.90
37242;DHT22;23135;51.078;12.108;2024-03-29T08:58:07;11.50;99.90
37242;DHT22;23135;51.078;12.108;2024-03-29T09:00:33;11.60;99.90
37242;DHT22;23135;51.078;12.108;2024-03-29T09:02:59;11.70;99.90
37242;DHT22;23135;51.078;12.108;2024-03-29T09:05:27;11.80;99.90
37242;DHT22;23135;51.078;12.108;2024-03-29T09:07:55;11.90;99.90
37242;DHT22;23135;51.078;12.108;2024-03-29T09:10:22;11.90;99.90
37242;DHT22;23135;51.078;12.108;2024-03-29T09:12:48;12.00;99.90
37242;DHT22;23135;51.078;12.108;2024-03-29T09:15:13;12.10;99.90
37242;DHT22;23135;51.078;12.108;2024-03-29T09:17:41;12.20;99.90
37242;DHT22;23135;51.078;12.108;2024-03-29T09:20:07;12.30;99.90
37242;DHT22;23135;51.078;12.108;2024-03-29T09:22:32;12.50;99.90
37242;DHT22;23135;51.078;12.108;2024-03-29T09:24:58;12.70;99.90
37242;DHT22;23135;51.078;12.108;2024-03-29T09:27:26;13.10;99.90
37242;DHT22;23135;51.078;12.108;2024-03-29T09:29:51;13.30;99.90
37242;DHT22;23135;51.078;12.108;2024-03-29T09:32:17;13.40;99.90
37242;DHT22;23135;51.078;12.108;2024-03-29T09:34:43;13.60;99.90
37242;DHT22;23135;51.078;12.108;2024-03-29T09:37:09;13.80;99.90
37242;DHT22;23135;51.078;12.108;2024-03-29T09:39:35;13.90;99.90
37242;DHT22;23135;51.078;12.108;2024-03-29T09:42:02;13.90;99.70
37242;DHT22;23135;51.078;12.108;2024-03-29T09:44:33;13.80;99.90
37242;DHT22;23135;51.078;12.108;2024-03-29T09:47:03;13.70;99.80
37242;DHT22;23135;51.078;12.108;2024-03-29T09:49:32;13.60;99.90
37242;DHT22;23135;51.078;12.108;2024-03-29T09:51:59;13.70;99.90
37242;DHT22;23135;51.078;12.108;2024-03-29T09:54:27;13.60;99.70
37242;DHT22;23135;51.078;12.108;2024-03-29T09:56:57;13.60;99.90
37242;DHT22;23135;51.078;12.108;2024-03-29T09:59:23;13.60;99.80
37242;DHT22;23135;51.078;12.108;2024-03-29T10:01:50;13.80;99.90
37242;DHT22;23135;51.078;12.108;2024-03-29T10:04:18;13.90;99.20
37242;DHT22;23135;51.078;12.108;2024-03-29T10:06:46;13.80;99.00
37242;DHT22;23135;51.078;12.108;2024-03-29T10:09:18;13.70;98.40
37242;DHT22;23135;51.078;12.108;2024-03-29T10:11:45;13.60;98.30
37242;DHT22;23135;51.078;12.108;2024-03-29T10:14:11;13.60;98.40
37242;DHT22;23135;51.078;12.108;2024-03-29T10:16:37;13.70;97.90
37242;DHT22;23135;51.078;12.108;2024-03-29T10:19:04;13.60;98.40
37242;DHT22;23135;51.078;12.108;2024-03-29T10:21:30;13.70;98.40
37242;DHT22;23135;51.078;12.108;2024-03-29T10:23:55;13.60;98.40
37242;DHT22;23135;51.078;12.108;2024-03-29T10:26:21;13.60;98.30
37242;DHT22;23135;51.078;12.108;2024-03-29T10:28:47;13.60;98.40
37242;DHT22;23135;51.078;12.108;2024-03-29T10:31:14;13.60;98.40
37242;DHT22;23135;51.078;12.108;2024-03-29T10:33:42;13.60;98.20
37242;DHT22;23135;51.078;12.108;2024-03-29T10:36:09;13.70;98.20
37242;DHT22;23135;51.078;12.108;2024-03-29T10:38:37;13.60;98.00
37242;DHT22;23135;51.078;12.108;2024-03-29T10:41:04;13.60;97.50
37242;DHT22;23135;51.078;12.108;2024-03-29T10:43:32;13.80;97.60
37242;DHT22;23135;51.078;12.108;2024-03-29T10:46:02;13.70;97.60
37242;DHT22;23135;51.078;12.108;2024-03-29T10:48:30;13.70;97.60
37242;DHT22;23135;51.078;12.108;2024-03-29T10:50:58;13.80;97.70
37242;DHT22;23135;51.078;12.108;2024-03-29T10:53:25;13.80;97.60
37242;DHT22;23135;51.078;12.108;2024-03-29T10:55:54;13.80;97.60
37242;DHT22;23135;51.078;12.108;2024-03-29T10:58:21;13.80;97.70
37242;DHT22;23135;51.078;12.108;2024-03-29T11:00:53;13.80;98.20
37242;DHT22;23135;51.078;12.108;2024-03-29T11:03:41;13.80;98.30
37242;DHT22;23135;51.078;12.108;2024-03-29T11:06:12;13.80;97.70
37242;DHT22;23135;51.078;12.108;2024-03-29T11:08:39;13.80;97.60
37242;DHT22;23135;51.078;12.108;2024-03-29T11:11:12;13.80;97.80
37242;DHT22;23135;51.078;12.108;2024-03-29T11:13:47;13.80;98.10
37242;DHT22;23135;51.078;12.108;2024-03-29T11:16:14;13.80;98.30
37242;DHT22;23135;51.078;12.108;2024-03-29T11:18:42;13.80;98.70
37242;DHT22;23135;51.078;12.108;2024-03-29T11:21:08;13.70;99.50
37242;DHT22;23135;51.078;12.108;2024-03-29T11:23:35;13.80;99.90
37242;DHT22;23135;51.078;12.108;2024-03-29T11:26:01;13.70;99.90
37242;DHT22;23135;51.078;12.108;2024-03-29T11:28:30;13.70;99.90
37242;DHT22;23135;51.078;12.108;2024-03-29T11:33:33;13.60;99.90
37242;DHT22;23135;51.078;12.108;2024-03-29T11:36:10;13.50;99.90
37242;DHT22;23135;51.078;12.108;2024-03-29T11:38:36;13.50;99.90
37242;DHT22;23135;51.078;12.108;2024-03-29T11:41:10;13.40;99.90
37242;DHT22;23135;51.078;12.108;2024-03-29T11:43:36;13.30;99.90
37242;DHT22;23135;51.078;12.108;2024-03-29T11:46:06;13.10;99.90
37242;DHT22;23135;51.078;12.108;2024-03-29T11:48:32;12.80;99.90
37242;DHT22;23135;51.078;12.108;2024-03-29T11:50:58;12.70;99.90
37242;DHT22;23135;51.078;12.108;2024-03-29T11:53:24;12.50;99.90
37242;DHT22;23135;51.078;12.108;2024-03-29T11:55:49;12.40;99.90
37242;DHT22;23135;51.078;12.108;2024-03-29T11:58:22;12.30;99.90
37242;DHT22;23135;51.078;12.108;2024-03-29T12:00:49;12.20;99.90
37242;DHT22;23135;51.078;12.108;2024-03-29T12:03:18;12.10;99.90
37242;DHT22;23135;51.078;12.108;2024-03-29T12:05:46;12.10;99.90
37242;DHT22;23135;51.078;12.108;2024-03-29T12:08:13;12.00;99.90
37242;DHT22;23135;51.078;12.108;2024-03-29T12:10:39;12.00;99.90
37242;DHT22;23135;51.078;12.108;2024-03-29T12:13:05;11.90;99.90
37242;DHT22;23135;51.078;12.108;2024-03-29T12:15:31;12.00;99.90
37242;DHT22;23135;51.078;12.108;2024-03-29T12:17:58;12.10;99.90
37242;DHT22;23135;51.078;12.108;2024-03-29T12:20:25;12.00;99.90
37242;DHT22;23135;51.078;12.108;2024-03-29T12:22:50;12.00;99.90
37242;DHT22;23135;51.078;12.108;2024-03-29T12:25:17;11.90;99.90
37242;DHT22;23135;51.078;12.108;2024-03-29T12:27:43;11.90;99.90
37242;DHT22;23135;51.078;12.108;2024-03-29T12:30:09;11.90;99.90
37242;DHT22;23135;51.078;12.108;2024-03-29T12:32:35;11.80;99.90
37242;DHT22;23135;51.078;12.108;2024-03-29T12:35:15;11.70;99.90
37242;DHT22;23135;51.078;12.108;2024-03-29T12:37:50;11.60;99.90
37242;DHT22;23135;51.078;12.108;2024-03-29T12:40:17;11.60;99.90
37242;DHT22;23135;51.078;12.108;2024-03-29T12:42:52;11.60;99.90
37242;DHT22;23135;51.078;12.108;2024-03-29T12:45:22;11.70;99.90
37242;DHT22;23135;51.078;12.108;2024-03-29T12:47:48;11.70;99.90
37242;DHT22;23135;51.078;12.108;2024-03-29T12:52:54;11.80;99.90
37242;DHT22;23135;51.078;12.108;2024-03-29T12:55:21;11.80;99.90
37242;DHT22;23135;51.078;12.108;2024-03-29T12:57:48;11.80;99.90
37242;DHT22;23135;51.078;12.108;2024-03-29T13:00:14;11.80;99.90
37242;DHT22;23135;51.078;12.108;2024-03-29T13:02:40;11.70;99.90
37242;DHT22;23135;51.078;12.108;2024-03-29T13:05:05;11.70;99.90
37242;DHT22;23135;51.078;12.108;2024-03-29T13:07:32;11.70;99.90
37242;DHT22;23135;51.078;12.108;2024-03-29T13:09:59;11.70;99.90
37242;DHT22;23135;51.078;12.108;2024-03-29T13:12:31;11.90;99.90
37242;DHT22;23135;51.078;12.108;2024-03-29T13:15:02;11.90;99.90
37242;DHT22;23135;51.078;12.108;2024-03-29T13:17:31;12.00;99.90
37242;DHT22;23135;51.078;12.108;2024-03-29T13:19:56;12.10;99.90
37242;DHT22;23135;51.078;12.108;2024-03-29T13:22:22;12.10;99.90
37242;DHT22;23135;51.078;12.108;2024-03-29T13:24:47;12.10;99.90
37242;DHT22;23135;51.078;12.108;2024-03-29T13:27:13;12.20;99.90
37242;DHT22;23135;51.078;12.108;2024-03-29T13:29:39;12.20;99.90
37242;DHT22;23135;51.078;12.108;2024-03-29T13:32:05;12.30;99.90
37242;DHT22;23135;51.078;12.108;2024-03-29T13:34:31;12.40;99.90
37242;DHT22;23135;51.078;12.108;2024-03-29T13:36:56;12.70;99.90
37242;DHT22;23135;51.078;12.108;2024-03-29T13:39:22;13.00;99.90
37242;DHT22;23135;51.078;12.108;2024-03-29T13:41:49;13.30;99.90
37242;DHT22;23135;51.078;12.108;2024-03-29T13:44:15;13.50;99.90
37242;DHT22;23135;51.078;12.108;2024-03-29T13:46:43;13.50;99.90
37242;DHT22;23135;51.078;12.108;2024-03-29T13:49:08;13.80;99.90
37242;DHT22;23135;51.078;12.108;2024-03-29T13:51:34;13.90;99.90
37242;DHT22;23135;51.078;12.108;2024-03-29T13:54:00;13.80;99.90
37242;DHT22;23135;51.078;12.108;2024-03-29T13:56:25;13.80;99.90
37242;DHT22;23135;51.078;12.108;2024-03-29T13:58:51;13.80;99.90
37242;DHT22;23135;51.078;12.108;2024-03-29T14:01:17;14.00;99.90
37242;DHT22;23135;51.078;12.108;2024-03-29T14:03:43;13.90;99.90
37242;DHT22;23135;51.078;12.108;2024-03-29T14:06:09;13.90;99.90
37242;DHT22;23135;51.078;12.108;2024-03-29T14:08:35;13.90;99.90
37242;DHT22;23135;51.078;12.108;2024-03-29T14:11:01;13.90;99.90
37242;DHT22;23135;51.078;12.108;2024-03-29T14:13:26;13.90;99.90
37242;DHT22;23135;51.078;12.108;2024-03-29T14:15:53;13.90;99.90
37242;DHT22;23135;51.078;12.108;2024-03-29T14:18:19;13.90;99.90
37242;DHT22;23135;51.078;12.108;2024-03-29T14:20:45;13.80;99.90
37242;DHT22;23135;51.078;12.108;2024-03-29T14:23:10;13.80;99.90
37242;DHT22;23135;51.078;12.108;2024-03-29T14:25:38;13.80;99.90
37242;DHT22;23135;51.078;12.108;2024-03-29T14:28:04;13.70;99.90
37242;DHT22;23135;51.078;12.108;2024-03-29T14:30:30;13.70;99.90
37242;DHT22;23135;51.078;12.108;2024-03-29T14:32:56;13.70;99.90
37242;DHT22;23135;51.078;12.108;2024-03-29T14:35:22;13.70;99.90
37242;DHT22;23135;51.078;12.108;2024-03-29T14:37:48;13.70;99.90
37242;DHT22;23135;51.078;12.108;2024-03-29T14:40:13;13.70;99.90
37242;DHT22;23135;51.078;12.108;2024-03-29T14:42:41;13.60;99.90
37242;DHT22;23135;51.078;12.108;2024-03-29T14:45:07;13.60;99.90
37242;DHT22;23135;51.078;12.108;2024-03-29T14:47:33;13.70;99.90
37242;DHT22;23135;51.078;12.108;2024-03-29T14:50:00;13.70;99.90
37242;DHT22;23135;51.078;12.108;2024-03-29T14:52:26;13.70;99.90
37242;DHT22;23135;51.078;12.108;2024-03-29T14:54:51;13.70;99.90
37242;DHT22;23135;51.078;12.108;2024-03-29T14:57:17;13.80;99.90
37242;DHT22;23135;51.078;12.108;2024-03-29T14:59:50;14.00;99.90
37242;DHT22;23135;51.078;12.108;2024-03-29T15:02:15;14.10;99.90
37242;DHT22;23135;51.078;12.108;2024-03-29T15:04:41;14.20;99.90
37242;DHT22;23135;51.078;12.108;2024-03-29T15:07:07;14.20;99.90
37242;DHT22;23135;51.078;12.108;2024-03-29T15:09:33;14.30;99.90
37242;DHT22;23135;51.078;12.108;2024-03-29T15:12:03;14.40;99.90
37242;DHT22;23135;51.078;12.108;2024-03-29T15:14:29;14.40;99.90
37242;DHT22;23135;51.078;12.108;2024-03-29T15:16:55;14.50;99.90
37242;DHT22;23135;51.078;12.108;2024-03-29T15:19:21;14.50;99.90
37242;DHT22;23135;51.078;12.108;2024-03-29T15:21:47;14.50;99.90
37242;DHT22;23135;51.078;12.108;2024-03-29T15:24:14;14.50;99.90
37242;DHT22;23135;51.078;12.108;2024-03-29T15:26:40;14.50;99.90